Time;durP1;ratioP1;P1;durP2;ratioP2;P2;SDS_P1;SDS_P2;PMS_P1;PMS_P2;Temp;Humidity;BMP_temperature;BMP_pressure;BME280_temperature;BME280_humidity;BME280_pressure;Samples;Min_cycle;Max_cycle;Signal;HPM_P1;HPM_P2
2023/07/24 20:24:59;;;;;;;;;1.00;1.00;;;;;23.69;100.00;100587.00;5083266;27;50005;-69
2023/07/24 20:27:25;;;;;;;;;1.00;1.00;;;;;24.40;100.00;100536.06;5065793;28;49923;-68
2023/07/24 20:29:50;;;;;;;;;0.75;0.00;;;;;24.79;100.00;100544.31;5066093;28;50014;-68
2023/07/24 20:32:16;;;;;;;;;1.00;1.00;;;;;24.78;100.00;100534.53;5065962;27;50705;-69
2023/07/24 20:34:42;;;;;;;;;2.25;1.00;;;;;24.76;100.00;100531.91;5065624;27;49861;-68
2023/07/24 20:37:07;;;;;;;;;3.00;1.75;;;;;24.97;100.00;100527.44;5066038;28;49806;-70
2023/07/24 20:39:32;;;;;;;;;2.00;2.00;;;;;25.17;100.00;100529.31;5066108;28;50269;-71
2023/07/24 20:41:57;;;;;;;;;1.75;1.75;;;;;25.07;100.00;100518.09;5064908;27;59376;-70
2023/07/24 20:44:23;;;;;;;;;0.00;0.00;;;;;25.53;100.00;100529.50;5065826;27;49871;-70
2023/07/24 20:46:48;;;;;;;;;2.00;2.00;;;;;25.60;100.00;100532.81;5064819;28;67677;-70
2023/07/24 20:49:13;;;;;;;;;0.00;0.00;;;;;25.31;100.00;100504.53;5065542;28;49948;-70
2023/07/24 20:51:40;;;;;;;;;2.00;2.00;;;;;25.44;100.00;100535.28;5065483;28;50561;-70
2023/07/24 20:54:05;;;;;;;;;1.50;1.50;;;;;24.82;100.00;100536.16;5065443;27;49994;-70
2023/07/24 20:56:30;;;;;;;;;5.00;1.50;;;;;24.76;100.00;100547.13;5064656;27;64068;-70
2023/07/24 20:58:55;;;;;;;;;3.25;3.25;;;;;25.00;100.00;100542.56;5065433;27;49713;-70
2023/07/24 21:01:22;;;;;;;;;1.75;1.75;;;;;24.87;100.00;100552.06;5064756;27;66211;-70
2023/07/24 21:03:51;;;;;;;;;9.25;8.00;;;;;25.06;100.00;100521.72;5064935;27;50040;-69
2023/07/24 21:06:16;;;;;;;;;0.00;0.00;;;;;24.70;100.00;100544.69;5065785;27;49858;-69
2023/07/24 21:08:41;;;;;;;;;57.00;51.00;;;;;24.47;100.00;100551.00;5064652;27;53095;-69
2023/07/24 21:11:06;;;;;;;;;2.50;2.50;;;;;24.62;100.00;100552.22;5064334;28;72971;-70
2023/07/24 21:15:54;;;;;;;;;2.50;2.50;;;;;24.59;100.00;100550.50;5083260;27;49648;-68
2023/07/24 21:18:19;;;;;;;;;2.00;2.00;;;;;24.87;100.00;100546.69;5060581;28;50148;-68
2023/07/24 21:20:45;;;;;;;;;2.00;2.00;;;;;24.97;100.00;100548.03;5056577;28;50113;-68
2023/07/24 21:23:11;;;;;;;;;1.50;1.50;;;;;24.98;100.00;100555.16;5081060;27;51434;-68
2023/07/24 21:25:36;;;;;;;;;6.00;6.00;;;;;25.23;100.00;100552.34;5064933;27;50056;-68
2023/07/24 21:28:02;;;;;;;;;1.25;1.25;;;;;25.43;100.00;100556.88;5065678;28;49705;-68
2023/07/24 21:30:27;;;;;;;;;5.75;4.00;;;;;25.39;100.00;100564.19;5066658;27;49984;-68
2023/07/24 21:32:52;;;;;;;;;5.00;5.00;;;;;25.45;100.00;100553.16;5065437;28;50141;-68
2023/07/24 21:35:18;;;;;;;;;7.25;5.00;;;;;25.46;100.00;100551.34;5064755;28;72189;-68
2023/07/24 21:38:52;;;;;;;;;4.75;4.75;;;;;24.85;100.00;100544.06;4994311;27;50119;-67
2023/07/24 21:41:18;;;;;;;;;4.25;2.00;;;;;25.51;100.00;100544.84;4982472;28;59690;-68
2023/07/24 21:43:43;;;;;;;;;1.00;0.00;;;;;25.74;100.00;100542.97;4983840;28;49931;-67
2023/07/24 21:46:08;;;;;;;;;3.50;1.50;;;;;25.68;100.00;100533.34;4981839;27;53339;-68
2023/07/24 21:48:34;;;;;;;;;1.50;1.50;;;;;25.93;100.00;100536.66;4982332;28;49712;-68
2023/07/24 21:50:59;;;;;;;;;4.00;2.00;;;;;25.93;100.00;100541.16;4981408;27;50263;-68
2023/07/24 21:53:25;;;;;;;;;2.00;2.00;;;;;25.98;100.00;100543.66;4982634;28;49941;-68
2023/07/24 21:55:50;;;;;;;;;1.25;1.25;;;;;25.78;100.00;100548.16;4982032;27;51303;-68
2023/07/24 21:58:15;;;;;;;;;1.75;1.75;;;;;25.79;100.00;100549.88;4983629;28;49856;-69
2023/07/24 22:00:41;;;;;;;;;4.50;4.50;;;;;25.95;100.00;100550.03;4980942;28;49771;-68
2023/07/24 22:03:06;;;;;;;;;2.50;2.50;;;;;25.76;100.00;100543.75;4982377;28;50135;-68
2023/07/24 22:05:32;;;;;;;;;2.00;0.50;;;;;25.80;100.00;100551.63;4981920;28;55912;-69
2023/07/24 22:07:57;;;;;;;;;2.50;1.25;;;;;25.44;100.00;100555.91;4980643;27;50137;-68
2023/07/24 22:10:23;;;;;;;;;4.00;1.50;;;;;25.50;100.00;100571.78;4986112;28;63188;-69
2023/07/24 22:12:49;;;;;;;;;0.50;0.50;;;;;25.46;100.00;100560.28;4972553;28;50411;-70
2023/07/24 23:34:10;;;;;;;;;14.50;14.25;;;;;24.64;100.00;100508.25;5970085;23;50536;-68
2023/07/24 23:36:35;;;;;;;;;5.50;1.00;;;;;24.47;100.00;100513.44;4999632;22;53461;-74
2023/07/24 23:39:00;;;;;;;;;53.25;49.00;;;;;24.33;100.00;100495.22;4978037;28;50908;-74
2023/07/24 23:41:26;;;;;;;;;1.00;1.00;;;;;24.27;100.00;100515.06;4987346;28;50154;-73
2023/07/24 23:43:52;;;;;;;;;2.00;0.75;;;;;24.13;100.00;100504.03;4982091;28;50818;-73
2023/07/24 23:46:17;;;;;;;;;3.25;0.00;;;;;24.19;100.00;100509.13;4990207;28;50124;-73
2023/07/24 23:48:43;;;;;;;;;0.00;0.00;;;;;24.10;100.00;100497.88;4989248;28;50037;-74
2023/07/24 23:51:22;;;;;;;;;90.25;74.75;;;;;24.22;100.00;100492.03;4989749;28;50049;-74
2023/07/24 23:53:48;;;;;;;;;43.25;42.75;;;;;23.78;100.00;100505.38;4981924;28;50579;-74
2023/07/24 23:56:14;;;;;;;;;1.00;1.00;;;;;24.15;100.00;100512.00;4989970;28;50058;-74
2023/07/24 23:58:39;;;;;;;;;9.50;7.75;;;;;23.69;100.00;100497.66;4990127;28;49823;-73
